sensor_id;sensor_type;location;lat;lon;timestamp;P1;durP1;ratioP1;P2;durP2;ratioP2
20090;SDS011;10205;49.678;6.560;2023-05-09T00:01:46;2.00;;;1.90;;
20090;SDS011;10205;49.678;6.560;2023-05-09T00:04:14;2.00;;;1.90;;
20090;SDS011;10205;49.678;6.560;2023-05-09T00:06:41;2.58;;;2.20;;
20090;SDS011;10205;49.678;6.560;2023-05-09T00:09:08;2.25;;;1.95;;
20090;SDS011;10205;49.678;6.560;2023-05-09T00:11:36;2.38;;;2.17;;
20090;SDS011;10205;49.678;6.560;2023-05-09T00:14:03;2.13;;;1.98;;
20090;SDS011;10205;49.678;6.560;2023-05-09T00:16:31;2.25;;;2.05;;
20090;SDS011;10205;49.678;6.560;2023-05-09T00:19:02;2.42;;;2.22;;
20090;SDS011;10205;49.678;6.560;2023-05-09T00:21:31;2.00;;;1.90;;
20090;SDS011;10205;49.678;6.560;2023-05-09T00:23:59;2.78;;;2.20;;
20090;SDS011;10205;49.678;6.560;2023-05-09T00:26:26;3.70;;;2.65;;
20090;SDS011;10205;49.678;6.560;2023-05-09T00:28:53;2.00;;;1.90;;
20090;SDS011;10205;49.678;6.560;2023-05-09T00:31:32;1.80;;;1.70;;
20090;SDS011;10205;49.678;6.560;2023-05-09T00:33:59;1.90;;;1.80;;
20090;SDS011;10205;49.678;6.560;2023-05-09T00:36:28;2.17;;;1.98;;
20090;SDS011;10205;49.678;6.560;2023-05-09T00:38:56;2.30;;;2.13;;
20090;SDS011;10205;49.678;6.560;2023-05-09T00:41:23;2.53;;;2.00;;
20090;SDS011;10205;49.678;6.560;2023-05-09T00:43:50;2.67;;;2.05;;
20090;SDS011;10205;49.678;6.560;2023-05-09T00:46:17;2.53;;;2.28;;
20090;SDS011;10205;49.678;6.560;2023-05-09T00:48:44;2.25;;;2.03;;
20090;SDS011;10205;49.678;6.560;2023-05-09T00:51:15;2.25;;;2.13;;
20090;SDS011;10205;49.678;6.560;2023-05-09T00:53:43;2.15;;;1.95;;
20090;SDS011;10205;49.678;6.560;2023-05-09T00:56:13;2.50;;;2.30;;
20090;SDS011;10205;49.678;6.560;2023-05-09T00:58:41;2.85;;;2.10;;
20090;SDS011;10205;49.678;6.560;2023-05-09T01:01:08;2.40;;;2.20;;
20090;SDS011;10205;49.678;6.560;2023-05-09T01:03:37;2.20;;;2.00;;
20090;SDS011;10205;49.678;6.560;2023-05-09T01:06:08;2.35;;;1.88;;
20090;SDS011;10205;49.678;6.560;2023-05-09T01:08:49;2.97;;;2.20;;
20090;SDS011;10205;49.678;6.560;2023-05-09T01:11:28;2.15;;;1.95;;
20090;SDS011;10205;49.678;6.560;2023-05-09T01:14:02;2.58;;;2.38;;
20090;SDS011;10205;49.678;6.560;2023-05-09T01:16:42;2.50;;;2.30;;
20090;SDS011;10205;49.678;6.560;2023-05-09T01:19:35;2.20;;;2.00;;
20090;SDS011;10205;49.678;6.560;2023-05-09T01:22:32;2.30;;;2.10;;
20090;SDS011;10205;49.678;6.560;2023-05-09T01:25:25;2.30;;;2.10;;
20090;SDS011;10205;49.678;6.560;2023-05-09T01:28:18;2.75;;;2.55;;
20090;SDS011;10205;49.678;6.560;2023-05-09T01:31:24;3.40;;;2.10;;
20090;SDS011;10205;49.678;6.560;2023-05-09T01:33:55;2.67;;;2.30;;
20090;SDS011;10205;49.678;6.560;2023-05-09T01:36:29;4.05;;;2.53;;
20090;SDS011;10205;49.678;6.560;2023-05-09T01:39:01;2.80;;;2.60;;
20090;SDS011;10205;49.678;6.560;2023-05-09T01:41:30;2.55;;;2.35;;
20090;SDS011;10205;49.678;6.560;2023-05-09T01:44:02;2.60;;;2.40;;
20090;SDS011;10205;49.678;6.560;2023-05-09T01:46:34;2.60;;;2.40;;
20090;SDS011;10205;49.678;6.560;2023-05-09T01:49:02;4.13;;;2.67;;
20090;SDS011;10205;49.678;6.560;2023-05-09T01:51:33;2.67;;;2.47;;
20090;SDS011;10205;49.678;6.560;2023-05-09T01:54:02;2.50;;;2.30;;
20090;SDS011;10205;49.678;6.560;2023-05-09T01:56:31;3.00;;;2.80;;
20090;SDS011;10205;49.678;6.560;2023-05-09T01:59:01;2.63;;;2.42;;
20090;SDS011;10205;49.678;6.560;2023-05-09T02:01:31;2.45;;;2.25;;
20090;SDS011;10205;49.678;6.560;2023-05-09T02:04:01;3.22;;;2.97;;
20090;SDS011;10205;49.678;6.560;2023-05-09T02:06:31;2.53;;;2.33;;
20090;SDS011;10205;49.678;6.560;2023-05-09T02:09:00;2.90;;;2.70;;
20090;SDS011;10205;49.678;6.560;2023-05-09T02:11:27;2.88;;;2.67;;
20090;SDS011;10205;49.678;6.560;2023-05-09T02:13:54;2.60;;;2.40;;
20090;SDS011;10205;49.678;6.560;2023-05-09T02:16:22;2.15;;;1.95;;
20090;SDS011;10205;49.678;6.560;2023-05-09T02:18:49;2.50;;;2.30;;
20090;SDS011;10205;49.678;6.560;2023-05-09T02:21:18;2.50;;;2.30;;
20090;SDS011;10205;49.678;6.560;2023-05-09T02:23:45;2.72;;;2.53;;
20090;SDS011;10205;49.678;6.560;2023-05-09T02:26:12;2.53;;;2.33;;
20090;SDS011;10205;49.678;6.560;2023-05-09T02:28:40;2.78;;;2.25;;
20090;SDS011;10205;49.678;6.560;2023-05-09T02:31:10;2.50;;;2.20;;
20090;SDS011;10205;49.678;6.560;2023-05-09T02:33:39;2.47;;;2.25;;
20090;SDS011;10205;49.678;6.560;2023-05-09T02:36:08;2.88;;;2.67;;
20090;SDS011;10205;49.678;6.560;2023-05-09T02:38:38;2.60;;;2.40;;
20090;SDS011;10205;49.678;6.560;2023-05-09T02:41:11;2.40;;;2.03;;
20090;SDS011;10205;49.678;6.560;2023-05-09T02:43:39;2.33;;;2.13;;
20090;SDS011;10205;49.678;6.560;2023-05-09T02:46:06;2.63;;;2.42;;
20090;SDS011;10205;49.678;6.560;2023-05-09T02:48:34;3.03;;;2.45;;
20090;SDS011;10205;49.678;6.560;2023-05-09T02:51:01;2.40;;;2.20;;
20090;SDS011;10205;49.678;6.560;2023-05-09T02:53:29;2.72;;;2.42;;
20090;SDS011;10205;49.678;6.560;2023-05-09T02:55:57;2.47;;;2.28;;
20090;SDS011;10205;49.678;6.560;2023-05-09T02:58:24;2.55;;;2.35;;
20090;SDS011;10205;49.678;6.560;2023-05-09T03:00:51;3.15;;;2.30;;
20090;SDS011;10205;49.678;6.560;2023-05-09T03:03:18;2.45;;;2.25;;
20090;SDS011;10205;49.678;6.560;2023-05-09T03:05:46;2.38;;;2.17;;
20090;SDS011;10205;49.678;6.560;2023-05-09T03:08:13;2.25;;;2.05;;
20090;SDS011;10205;49.678;6.560;2023-05-09T03:10:40;2.53;;;2.33;;
20090;SDS011;10205;49.678;6.560;2023-05-09T03:13:08;2.47;;;2.28;;
20090;SDS011;10205;49.678;6.560;2023-05-09T03:15:38;2.30;;;2.10;;
20090;SDS011;10205;49.678;6.560;2023-05-09T03:18:06;4.50;;;2.33;;
20090;SDS011;10205;49.678;6.560;2023-05-09T03:20:33;2.45;;;2.25;;
20090;SDS011;10205;49.678;6.560;2023-05-09T03:23:00;2.47;;;2.28;;
20090;SDS011;10205;49.678;6.560;2023-05-09T03:25:27;2.38;;;2.17;;
20090;SDS011;10205;49.678;6.560;2023-05-09T03:27:54;2.55;;;2.35;;
20090;SDS011;10205;49.678;6.560;2023-05-09T03:30:22;2.63;;;2.42;;
20090;SDS011;10205;49.678;6.560;2023-05-09T03:32:51;4.55;;;2.30;;
20090;SDS011;10205;49.678;6.560;2023-05-09T03:35:18;3.08;;;2.78;;
20090;SDS011;10205;49.678;6.560;2023-05-09T03:37:45;2.45;;;2.25;;
20090;SDS011;10205;49.678;6.560;2023-05-09T03:40:12;2.50;;;2.30;;
20090;SDS011;10205;49.678;6.560;2023-05-09T03:42:39;4.25;;;2.70;;
20090;SDS011;10205;49.678;6.560;2023-05-09T03:45:07;2.47;;;2.28;;
20090;SDS011;10205;49.678;6.560;2023-05-09T03:47:36;2.95;;;2.75;;
20090;SDS011;10205;49.678;6.560;2023-05-09T03:50:04;3.25;;;2.95;;
20090;SDS011;10205;49.678;6.560;2023-05-09T03:52:33;2.50;;;2.30;;
20090;SDS011;10205;49.678;6.560;2023-05-09T03:55:01;2.90;;;2.70;;
20090;SDS011;10205;49.678;6.560;2023-05-09T03:57:28;2.92;;;2.55;;
20090;SDS011;10205;49.678;6.560;2023-05-09T03:59:55;2.95;;;2.67;;
20090;SDS011;10205;49.678;6.560;2023-05-09T04:02:22;2.53;;;2.33;;
20090;SDS011;10205;49.678;6.560;2023-05-09T04:04:51;3.50;;;2.63;;
20090;SDS011;10205;49.678;6.560;2023-05-09T04:07:18;2.53;;;2.33;;
20090;SDS011;10205;49.678;6.560;2023-05-09T04:09:46;2.58;;;2.38;;
20090;SDS011;10205;49.678;6.560;2023-05-09T04:12:13;2.80;;;2.60;;
20090;SDS011;10205;49.678;6.560;2023-05-09T04:14:40;2.60;;;2.40;;
20090;SDS011;10205;49.678;6.560;2023-05-09T04:17:08;2.65;;;2.45;;
20090;SDS011;10205;49.678;6.560;2023-05-09T04:19:35;2.85;;;2.55;;
20090;SDS011;10205;49.678;6.560;2023-05-09T04:22:04;2.90;;;2.70;;
20090;SDS011;10205;49.678;6.560;2023-05-09T04:24:31;2.50;;;2.30;;
20090;SDS011;10205;49.678;6.560;2023-05-09T04:26:58;2.35;;;2.15;;
20090;SDS011;10205;49.678;6.560;2023-05-09T04:29:26;2.65;;;2.45;;
20090;SDS011;10205;49.678;6.560;2023-05-09T04:31:53;3.78;;;2.50;;
20090;SDS011;10205;49.678;6.560;2023-05-09T04:34:22;2.60;;;2.40;;
20090;SDS011;10205;49.678;6.560;2023-05-09T04:36:50;2.50;;;2.30;;
20090;SDS011;10205;49.678;6.560;2023-05-09T04:39:19;2.53;;;2.33;;
20090;SDS011;10205;49.678;6.560;2023-05-09T04:41:46;2.95;;;2.58;;
20090;SDS011;10205;49.678;6.560;2023-05-09T04:44:13;2.40;;;2.20;;
20090;SDS011;10205;49.678;6.560;2023-05-09T04:46:44;2.60;;;2.40;;
20090;SDS011;10205;49.678;6.560;2023-05-09T04:49:11;2.60;;;2.40;;
20090;SDS011;10205;49.678;6.560;2023-05-09T04:51:38;2.75;;;2.55;;
20090;SDS011;10205;49.678;6.560;2023-05-09T04:54:05;2.47;;;2.28;;
20090;SDS011;10205;49.678;6.560;2023-05-09T04:56:34;2.55;;;2.35;;
20090;SDS011;10205;49.678;6.560;2023-05-09T04:59:01;2.45;;;2.22;;
20090;SDS011;10205;49.678;6.560;2023-05-09T05:01:28;3.05;;;2.78;;
20090;SDS011;10205;49.678;6.560;2023-05-09T05:03:56;2.80;;;2.60;;
20090;SDS011;10205;49.678;6.560;2023-05-09T05:06:23;2.50;;;2.30;;
20090;SDS011;10205;49.678;6.560;2023-05-09T05:08:50;3.05;;;2.50;;
20090;SDS011;10205;49.678;6.560;2023-05-09T05:11:17;3.22;;;2.22;;
20090;SDS011;10205;49.678;6.560;2023-05-09T05:13:46;2.78;;;2.58;;
20090;SDS011;10205;49.678;6.560;2023-05-09T05:16:14;2.50;;;2.30;;
20090;SDS011;10205;49.678;6.560;2023-05-09T05:18:41;2.63;;;2.42;;
20090;SDS011;10205;49.678;6.560;2023-05-09T05:21:08;3.03;;;2.78;;
20090;SDS011;10205;49.678;6.560;2023-05-09T05:23:35;3.13;;;2.80;;
20090;SDS011;10205;49.678;6.560;2023-05-09T05:26:03;3.13;;;2.40;;
20090;SDS011;10205;49.678;6.560;2023-05-09T05:28:30;3.25;;;2.95;;
20090;SDS011;10205;49.678;6.560;2023-05-09T05:30:58;2.88;;;2.67;;
20090;SDS011;10205;49.678;6.560;2023-05-09T05:33:25;2.40;;;2.20;;
20090;SDS011;10205;49.678;6.560;2023-05-09T05:35:52;2.65;;;2.45;;
20090;SDS011;10205;49.678;6.560;2023-05-09T05:38:19;2.88;;;2.67;;
20090;SDS011;10205;49.678;6.560;2023-05-09T05:40:47;2.47;;;2.30;;
20090;SDS011;10205;49.678;6.560;2023-05-09T05:43:13;2.50;;;2.30;;
20090;SDS011;10205;49.678;6.560;2023-05-09T05:45:41;2.75;;;2.55;;
20090;SDS011;10205;49.678;6.560;2023-05-09T05:48:09;2.75;;;2.50;;
20090;SDS011;10205;49.678;6.560;2023-05-09T05:50:36;2.53;;;2.33;;
20090;SDS011;10205;49.678;6.560;2023-05-09T05:53:04;3.25;;;2.67;;
20090;SDS011;10205;49.678;6.560;2023-05-09T05:55:31;2.78;;;2.58;;
20090;SDS011;10205;49.678;6.560;2023-05-09T05:57:58;2.70;;;2.50;;
20090;SDS011;10205;49.678;6.560;2023-05-09T06:00:26;2.50;;;2.30;;
20090;SDS011;10205;49.678;6.560;2023-05-09T06:02:53;3.00;;;2.70;;
20090;SDS011;10205;49.678;6.560;2023-05-09T06:05:23;4.13;;;3.33;;
20090;SDS011;10205;49.678;6.560;2023-05-09T06:07:50;4.45;;;3.67;;
20090;SDS011;10205;49.678;6.560;2023-05-09T06:10:18;4.88;;;4.40;;
20090;SDS011;10205;49.678;6.560;2023-05-09T06:12:45;5.88;;;4.85;;
20090;SDS011;10205;49.678;6.560;2023-05-09T06:15:12;6.53;;;4.93;;
20090;SDS011;10205;49.678;6.560;2023-05-09T06:17:39;6.45;;;4.72;;
20090;SDS011;10205;49.678;6.560;2023-05-09T06:20:06;7.85;;;4.78;;
20090;SDS011;10205;49.678;6.560;2023-05-09T06:22:35;5.30;;;4.40;;
20090;SDS011;10205;49.678;6.560;2023-05-09T06:25:02;5.57;;;4.97;;
20090;SDS011;10205;49.678;6.560;2023-05-09T06:27:30;5.38;;;4.85;;
20090;SDS011;10205;49.678;6.560;2023-05-09T06:29:57;4.85;;;4.43;;
20090;SDS011;10205;49.678;6.560;2023-05-09T06:32:27;4.63;;;4.22;;
20090;SDS011;10205;49.678;6.560;2023-05-09T06:34:54;5.63;;;4.13;;
20090;SDS011;10205;49.678;6.560;2023-05-09T06:37:21;4.95;;;4.45;;
20090;SDS011;10205;49.678;6.560;2023-05-09T06:39:49;4.40;;;4.00;;
20090;SDS011;10205;49.678;6.560;2023-05-09T06:42:16;4.95;;;4.45;;
20090;SDS011;10205;49.678;6.560;2023-05-09T06:44:43;5.05;;;4.10;;
20090;SDS011;10205;49.678;6.560;2023-05-09T06:47:10;4.57;;;4.03;;
20090;SDS011;10205;49.678;6.560;2023-05-09T06:49:37;4.78;;;4.07;;
20090;SDS011;10205;49.678;6.560;2023-05-09T06:52:04;5.13;;;4.63;;
20090;SDS011;10205;49.678;6.560;2023-05-09T06:54:31;5.05;;;4.57;;
20090;SDS011;10205;49.678;6.560;2023-05-09T06:57:00;4.22;;;3.67;;
20090;SDS011;10205;49.678;6.560;2023-05-09T06:59:27;4.55;;;4.00;;
20090;SDS011;10205;49.678;6.560;2023-05-09T07:01:54;4.97;;;4.57;;
20090;SDS011;10205;49.678;6.560;2023-05-09T07:04:21;4.90;;;4.40;;
20090;SDS011;10205;49.678;6.560;2023-05-09T07:06:48;5.40;;;4.90;;
20090;SDS011;10205;49.678;6.560;2023-05-09T07:09:18;5.53;;;4.88;;
20090;SDS011;10205;49.678;6.560;2023-05-09T07:11:45;5.20;;;4.03;;
20090;SDS011;10205;49.678;6.560;2023-05-09T07:14:13;5.82;;;5.05;;
20090;SDS011;10205;49.678;6.560;2023-05-09T07:16:41;5.05;;;4.55;;
20090;SDS011;10205;49.678;6.560;2023-05-09T07:19:08;6.10;;;4.43;;
20090;SDS011;10205;49.678;6.560;2023-05-09T07:21:35;4.97;;;4.20;;
20090;SDS011;10205;49.678;6.560;2023-05-09T07:24:02;4.25;;;3.85;;
20090;SDS011;10205;49.678;6.560;2023-05-09T07:26:30;4.57;;;4.10;;
20090;SDS011;10205;49.678;6.560;2023-05-09T07:29:00;4.65;;;4.25;;
20090;SDS011;10205;49.678;6.560;2023-05-09T07:31:29;4.00;;;3.60;;
20090;SDS011;10205;49.678;6.560;2023-05-09T07:33:56;4.25;;;3.85;;
20090;SDS011;10205;49.678;6.560;2023-05-09T07:36:23;4.25;;;3.85;;
20090;SDS011;10205;49.678;6.560;2023-05-09T07:38:50;4.70;;;4.22;;
20090;SDS011;10205;49.678;6.560;2023-05-09T07:41:18;5.15;;;3.90;;
20090;SDS011;10205;49.678;6.560;2023-05-09T07:43:46;4.30;;;3.70;;
20090;SDS011;10205;49.678;6.560;2023-05-09T07:46:14;5.50;;;4.50;;
20090;SDS011;10205;49.678;6.560;2023-05-09T07:48:42;4.38;;;3.85;;
20090;SDS011;10205;49.678;6.560;2023-05-09T07:51:09;5.30;;;4.20;;
20090;SDS011;10205;49.678;6.560;2023-05-09T07:53:36;4.63;;;3.42;;
20090;SDS011;10205;49.678;6.560;2023-05-09T07:56:04;4.50;;;3.70;;
20090;SDS011;10205;49.678;6.560;2023-05-09T07:58:31;6.07;;;4.13;;
20090;SDS011;10205;49.678;6.560;2023-05-09T08:00:59;3.90;;;3.47;;
20090;SDS011;10205;49.678;6.560;2023-05-09T08:03:26;5.45;;;4.13;;
20090;SDS011;10205;49.678;6.560;2023-05-09T08:05:54;5.50;;;3.78;;
20090;SDS011;10205;49.678;6.560;2023-05-09T08:08:23;3.67;;;3.33;;
20090;SDS011;10205;49.678;6.560;2023-05-09T08:10:51;4.13;;;3.53;;
20090;SDS011;10205;49.678;6.560;2023-05-09T08:13:18;4.07;;;3.67;;
20090;SDS011;10205;49.678;6.560;2023-05-09T08:15:46;4.63;;;3.40;;
20090;SDS011;10205;49.678;6.560;2023-05-09T08:18:13;4.13;;;3.30;;
20090;SDS011;10205;49.678;6.560;2023-05-09T08:20:40;4.75;;;3.58;;
20090;SDS011;10205;49.678;6.560;2023-05-09T08:23:09;4.03;;;3.63;;
20090;SDS011;10205;49.678;6.560;2023-05-09T08:25:36;4.00;;;3.55;;
20090;SDS011;10205;49.678;6.560;2023-05-09T08:28:03;5.28;;;4.10;;
20090;SDS011;10205;49.678;6.560;2023-05-09T08:30:30;4.47;;;4.07;;
20090;SDS011;10205;49.678;6.560;2023-05-09T08:32:57;4.18;;;3.78;;
20090;SDS011;10205;49.678;6.560;2023-05-09T08:35:24;4.10;;;3.15;;
20090;SDS011;10205;49.678;6.560;2023-05-09T08:37:51;3.90;;;3.60;;
20090;SDS011;10205;49.678;6.560;2023-05-09T08:40:20;4.20;;;3.80;;
20090;SDS011;10205;49.678;6.560;2023-05-09T08:42:47;5.63;;;3.47;;
20090;SDS011;10205;49.678;6.560;2023-05-09T08:45:15;5.05;;;3.83;;
20090;SDS011;10205;49.678;6.560;2023-05-09T08:47:52;4.00;;;3.50;;
20090;SDS011;10205;49.678;6.560;2023-05-09T08:50:20;3.78;;;3.30;;
20090;SDS011;10205;49.678;6.560;2023-05-09T08:52:48;4.28;;;3.60;;
20090;SDS011;10205;49.678;6.560;2023-05-09T08:55:16;5.18;;;3.92;;
20090;SDS011;10205;49.678;6.560;2023-05-09T08:57:45;4.78;;;3.58;;
20090;SDS011;10205;49.678;6.560;2023-05-09T09:00:13;6.25;;;3.70;;
20090;SDS011;10205;49.678;6.560;2023-05-09T09:02:44;4.22;;;3.63;;
20090;SDS011;10205;49.678;6.560;2023-05-09T09:05:12;5.00;;;3.50;;
20090;SDS011;10205;49.678;6.560;2023-05-09T09:07:40;4.20;;;3.50;;
20090;SDS011;10205;49.678;6.560;2023-05-09T09:10:08;4.40;;;3.63;;
20090;SDS011;10205;49.678;6.560;2023-05-09T09:12:37;4.32;;;3.78;;
20090;SDS011;10205;49.678;6.560;2023-05-09T09:15:06;3.40;;;3.10;;
20090;SDS011;10205;49.678;6.560;2023-05-09T09:17:41;3.67;;;3.20;;
20090;SDS011;10205;49.678;6.560;2023-05-09T09:20:13;5.43;;;3.55;;
20090;SDS011;10205;49.678;6.560;2023-05-09T09:22:46;3.40;;;3.10;;
20090;SDS011;10205;49.678;6.560;2023-05-09T09:25:17;3.38;;;3.10;;
20090;SDS011;10205;49.678;6.560;2023-05-09T09:27:44;3.55;;;3.25;;
20090;SDS011;10205;49.678;6.560;2023-05-09T09:30:14;4.38;;;3.00;;
20090;SDS011;10205;49.678;6.560;2023-05-09T09:32:42;3.10;;;2.80;;
20090;SDS011;10205;49.678;6.560;2023-05-09T09:35:10;3.53;;;3.13;;
20090;SDS011;10205;49.678;6.560;2023-05-09T09:37:38;3.00;;;2.75;;
20090;SDS011;10205;49.678;6.560;2023-05-09T09:40:08;3.40;;;3.10;;
20090;SDS011;10205;49.678;6.560;2023-05-09T09:42:41;3.70;;;3.10;;
20090;SDS011;10205;49.678;6.560;2023-05-09T09:45:11;3.20;;;2.90;;
20090;SDS011;10205;49.678;6.560;2023-05-09T09:47:42;3.50;;;3.20;;
20090;SDS011;10205;49.678;6.560;2023-05-09T09:50:11;3.20;;;2.90;;
20090;SDS011;10205;49.678;6.560;2023-05-09T09:52:41;2.90;;;2.70;;
20090;SDS011;10205;49.678;6.560;2023-05-09T09:55:10;2.40;;;2.05;;
20090;SDS011;10205;49.678;6.560;2023-05-09T09:57:38;3.25;;;2.95;;
20090;SDS011;10205;49.678;6.560;2023-05-09T10:00:08;2.78;;;2.58;;
20090;SDS011;10205;49.678;6.560;2023-05-09T10:02:46;3.72;;;2.60;;
20090;SDS011;10205;49.678;6.560;2023-05-09T10:05:19;3.55;;;2.75;;
20090;SDS011;10205;49.678;6.560;2023-05-09T10:07:52;2.28;;;2.00;;
20090;SDS011;10205;49.678;6.560;2023-05-09T10:10:21;2.67;;;2.40;;
20090;SDS011;10205;49.678;6.560;2023-05-09T10:12:51;2.42;;;2.22;;
20090;SDS011;10205;49.678;6.560;2023-05-09T10:15:23;3.17;;;2.35;;
20090;SDS011;10205;49.678;6.560;2023-05-09T10:17:55;3.45;;;2.60;;
20090;SDS011;10205;49.678;6.560;2023-05-09T10:20:28;2.95;;;2.22;;
20090;SDS011;10205;49.678;6.560;2023-05-09T10:22:56;3.17;;;2.22;;
20090;SDS011;10205;49.678;6.560;2023-05-09T10:25:30;2.30;;;2.10;;
20090;SDS011;10205;49.678;6.560;2023-05-09T10:28:05;3.20;;;2.03;;
20090;SDS011;10205;49.678;6.560;2023-05-09T10:30:40;2.05;;;1.85;;
20090;SDS011;10205;49.678;6.560;2023-05-09T10:33:18;2.72;;;1.88;;
20090;SDS011;10205;49.678;6.560;2023-05-09T10:35:51;2.85;;;2.05;;
20090;SDS011;10205;49.678;6.560;2023-05-09T10:38:23;1.95;;;1.83;;
20090;SDS011;10205;49.678;6.560;2023-05-09T10:40:51;2.10;;;1.80;;
20090;SDS011;10205;49.678;6.560;2023-05-09T10:43:20;2.60;;;1.75;;
20090;SDS011;10205;49.678;6.560;2023-05-09T10:45:49;1.70;;;1.60;;
20090;SDS011;10205;49.678;6.560;2023-05-09T10:48:19;2.42;;;2.03;;
20090;SDS011;10205;49.678;6.560;2023-05-09T10:50:48;2.33;;;1.60;;
20090;SDS011;10205;49.678;6.560;2023-05-09T10:53:15;2.70;;;1.77;;
20090;SDS011;10205;49.678;6.560;2023-05-09T10:55:49;1.67;;;1.50;;
20090;SDS011;10205;49.678;6.560;2023-05-09T10:58:20;2.22;;;1.75;;
20090;SDS011;10205;49.678;6.560;2023-05-09T11:00:52;1.95;;;1.60;;
20090;SDS011;10205;49.678;6.560;2023-05-09T11:03:23;3.58;;;1.73;;
20090;SDS011;10205;49.678;6.560;2023-05-09T11:05:52;1.70;;;1.60;;
20090;SDS011;10205;49.678;6.560;2023-05-09T11:08:21;1.75;;;1.65;;
20090;SDS011;10205;49.678;6.560;2023-05-09T11:10:51;1.67;;;1.58;;
20090;SDS011;10205;49.678;6.560;2023-05-09T11:13:19;4.13;;;1.90;;
20090;SDS011;10205;49.678;6.560;2023-05-09T11:15:49;2.00;;;1.30;;
20090;SDS011;10205;49.678;6.560;2023-05-09T11:18:31;1.40;;;1.30;;
20090;SDS011;10205;49.678;6.560;2023-05-09T11:20:58;1.90;;;1.60;;
20090;SDS011;10205;49.678;6.560;2023-05-09T11:23:32;2.35;;;1.90;;
20090;SDS011;10205;49.678;6.560;2023-05-09T11:26:03;1.88;;;1.23;;
20090;SDS011;10205;49.678;6.560;2023-05-09T11:28:32;1.75;;;1.30;;
20090;SDS011;10205;49.678;6.560;2023-05-09T11:31:08;1.67;;;1.25;;
20090;SDS011;10205;49.678;6.560;2023-05-09T11:33:39;1.95;;;1.50;;
20090;SDS011;10205;49.678;6.560;2023-05-09T11:36:14;2.08;;;1.30;;
20090;SDS011;10205;49.678;6.560;2023-05-09T11:38:43;1.40;;;1.30;;
20090;SDS011;10205;49.678;6.560;2023-05-09T11:41:11;1.60;;;1.30;;
20090;SDS011;10205;49.678;6.560;2023-05-09T11:43:39;1.83;;;1.35;;
20090;SDS011;10205;49.678;6.560;2023-05-09T11:46:09;2.00;;;1.42;;
20090;SDS011;10205;49.678;6.560;2023-05-09T11:48:38;1.92;;;1.45;;
20090;SDS011;10205;49.678;6.560;2023-05-09T11:51:06;1.30;;;1.20;;
20090;SDS011;10205;49.678;6.560;2023-05-09T11:53:33;1.60;;;1.50;;
20090;SDS011;10205;49.678;6.560;2023-05-09T11:56:10;2.22;;;1.55;;
20090;SDS011;10205;49.678;6.560;2023-05-09T11:58:38;2.83;;;1.30;;
20090;SDS011;10205;49.678;6.560;2023-05-09T12:01:06;1.48;;;1.35;;
20090;SDS011;10205;49.678;6.560;2023-05-09T12:03:33;2.50;;;1.60;;
20090;SDS011;10205;49.678;6.560;2023-05-09T12:06:02;2.90;;;1.63;;
20090;SDS011;10205;49.678;6.560;2023-05-09T12:08:29;3.33;;;1.67;;
20090;SDS011;10205;49.678;6.560;2023-05-09T12:11:06;1.55;;;1.38;;
20090;SDS011;10205;49.678;6.560;2023-05-09T12:13:34;2.05;;;1.52;;
20090;SDS011;10205;49.678;6.560;2023-05-09T12:16:09;1.70;;;1.60;;
20090;SDS011;10205;49.678;6.560;2023-05-09T12:18:36;1.63;;;1.52;;
20090;SDS011;10205;49.678;6.560;2023-05-09T12:21:05;2.00;;;1.60;;
20090;SDS011;10205;49.678;6.560;2023-05-09T12:23:33;2.28;;;1.85;;
20090;SDS011;10205;49.678;6.560;2023-05-09T12:26:00;1.83;;;1.70;;
20090;SDS011;10205;49.678;6.560;2023-05-09T12:28:27;2.00;;;1.67;;
20090;SDS011;10205;49.678;6.560;2023-05-09T12:30:55;2.22;;;1.73;;
20090;SDS011;10205;49.678;6.560;2023-05-09T12:33:23;2.22;;;2.03;;
20090;SDS011;10205;49.678;6.560;2023-05-09T12:35:59;2.10;;;1.85;;
20090;SDS011;10205;49.678;6.560;2023-05-09T12:38:31;2.38;;;1.92;;
20090;SDS011;10205;49.678;6.560;2023-05-09T12:40:59;1.63;;;1.52;;
20090;SDS011;10205;49.678;6.560;2023-05-09T12:43:28;4.05;;;2.70;;
20090;SDS011;10205;49.678;6.560;2023-05-09T12:45:57;2.30;;;2.10;;
20090;SDS011;10205;49.678;6.560;2023-05-09T12:48:24;4.35;;;2.30;;
20090;SDS011;10205;49.678;6.560;2023-05-09T12:50:51;2.67;;;2.13;;
20090;SDS011;10205;49.678;6.560;2023-05-09T12:53:24;2.72;;;2.20;;
20090;SDS011;10205;49.678;6.560;2023-05-09T12:55:56;2.13;;;1.92;;
20090;SDS011;10205;49.678;6.560;2023-05-09T12:58:28;3.42;;;2.38;;
20090;SDS011;10205;49.678;6.560;2023-05-09T13:00:56;4.00;;;2.38;;
20090;SDS011;10205;49.678;6.560;2023-05-09T13:03:25;2.88;;;2.28;;
20090;SDS011;10205;49.678;6.560;2023-05-09T13:05:58;3.25;;;2.20;;
20090;SDS011;10205;49.678;6.560;2023-05-09T13:08:27;2.25;;;2.00;;
20090;SDS011;10205;49.678;6.560;2023-05-09T13:10:56;2.40;;;2.17;;
20090;SDS011;10205;49.678;6.560;2023-05-09T13:13:24;3.30;;;2.10;;
20090;SDS011;10205;49.678;6.560;2023-05-09T13:15:52;1.90;;;1.80;;
20090;SDS011;10205;49.678;6.560;2023-05-09T13:18:20;2.88;;;2.10;;
20090;SDS011;10205;49.678;6.560;2023-05-09T13:20:48;2.30;;;2.10;;
20090;SDS011;10205;49.678;6.560;2023-05-09T13:23:16;2.40;;;2.20;;
20090;SDS011;10205;49.678;6.560;2023-05-09T13:25:44;2.53;;;2.05;;
20090;SDS011;10205;49.678;6.560;2023-05-09T13:28:12;2.00;;;1.80;;
20090;SDS011;10205;49.678;6.560;2023-05-09T13:30:40;2.08;;;1.88;;
20090;SDS011;10205;49.678;6.560;2023-05-09T13:33:07;1.80;;;1.70;;
20090;SDS011;10205;49.678;6.560;2023-05-09T13:35:34;1.75;;;1.65;;
20090;SDS011;10205;49.678;6.560;2023-05-09T13:38:01;1.92;;;1.73;;
20090;SDS011;10205;49.678;6.560;2023-05-09T13:40:28;2.67;;;2.00;;
20090;SDS011;10205;49.678;6.560;2023-05-09T13:42:55;2.30;;;1.77;;
20090;SDS011;10205;49.678;6.560;2023-05-09T13:45:24;2.13;;;1.92;;
20090;SDS011;10205;49.678;6.560;2023-05-09T13:47:51;2.05;;;1.80;;
20090;SDS011;10205;49.678;6.560;2023-05-09T13:50:18;2.15;;;1.95;;
20090;SDS011;10205;49.678;6.560;2023-05-09T13:52:45;2.03;;;1.83;;
20090;SDS011;10205;49.678;6.560;2023-05-09T13:55:13;1.63;;;1.52;;
20090;SDS011;10205;49.678;6.560;2023-05-09T13:57:41;1.85;;;1.67;;
20090;SDS011;10205;49.678;6.560;2023-05-09T14:00:09;2.22;;;1.67;;
20090;SDS011;10205;49.678;6.560;2023-05-09T14:02:39;1.92;;;1.70;;
20090;SDS011;10205;49.678;6.560;2023-05-09T14:05:06;1.83;;;1.65;;
20090;SDS011;10205;49.678;6.560;2023-05-09T14:07:34;2.00;;;1.90;;
20090;SDS011;10205;49.678;6.560;2023-05-09T14:10:01;2.38;;;1.58;;
20090;SDS011;10205;49.678;6.560;2023-05-09T14:12:29;2.13;;;1.67;;
20090;SDS011;10205;49.678;6.560;2023-05-09T14:14:56;3.15;;;1.88;;
20090;SDS011;10205;49.678;6.560;2023-05-09T14:17:23;1.73;;;1.52;;
20090;SDS011;10205;49.678;6.560;2023-05-09T14:19:52;1.70;;;1.60;;
20090;SDS011;10205;49.678;6.560;2023-05-09T14:22:19;2.75;;;1.67;;
20090;SDS011;10205;49.678;6.560;2023-05-09T14:24:46;2.25;;;1.60;;
20090;SDS011;10205;49.678;6.560;2023-05-09T14:27:13;1.92;;;1.70;;
20090;SDS011;10205;49.678;6.560;2023-05-09T14:29:40;1.85;;;1.73;;
20090;SDS011;10205;49.678;6.560;2023-05-09T14:32:08;2.08;;;1.88;;
20090;SDS011;10205;49.678;6.560;2023-05-09T14:34:36;2.20;;;2.03;;
20090;SDS011;10205;49.678;6.560;2023-05-09T14:37:05;2.40;;;1.95;;
20090;SDS011;10205;49.678;6.560;2023-05-09T14:39:37;2.60;;;2.25;;
20090;SDS011;10205;49.678;6.560;2023-05-09T14:42:05;2.08;;;1.90;;
20090;SDS011;10205;49.678;6.560;2023-05-09T14:44:34;2.33;;;2.00;;
20090;SDS011;10205;49.678;6.560;2023-05-09T14:47:01;2.20;;;2.00;;
20090;SDS011;10205;49.678;6.560;2023-05-09T14:49:29;2.13;;;1.90;;
20090;SDS011;10205;49.678;6.560;2023-05-09T14:51:56;2.03;;;1.80;;
20090;SDS011;10205;49.678;6.560;2023-05-09T14:54:25;2.85;;;1.52;;
20090;SDS011;10205;49.678;6.560;2023-05-09T14:56:52;3.38;;;1.70;;
20090;SDS011;10205;49.678;6.560;2023-05-09T14:59:19;1.88;;;1.48;;